sensor_id;sensor_type;location;lat;lon;timestamp;P1;durP1;ratioP1;P2;durP2;ratioP2
67503;SDS011;54351;49.108;1.502;2022-12-18T00:00:38;348.50;;;325.33;;
67503;SDS011;54351;49.108;1.502;2022-12-18T00:03:04;330.77;;;308.92;;
67503;SDS011;54351;49.108;1.502;2022-12-18T00:05:31;316.17;;;295.60;;
67503;SDS011;54351;49.108;1.502;2022-12-18T00:07:57;327.90;;;306.02;;
67503;SDS011;54351;49.108;1.502;2022-12-18T00:10:23;319.25;;;297.42;;
67503;SDS011;54351;49.108;1.502;2022-12-18T00:12:49;351.35;;;327.92;;
67503;SDS011;54351;49.108;1.502;2022-12-18T00:15:15;364.20;;;339.85;;
67503;SDS011;54351;49.108;1.502;2022-12-18T00:17:41;334.67;;;311.88;;
67503;SDS011;54351;49.108;1.502;2022-12-18T00:20:08;313.27;;;291.92;;
67503;SDS011;54351;49.108;1.502;2022-12-18T00:22:34;368.15;;;343.80;;
67503;SDS011;54351;49.108;1.502;2022-12-18T00:25:00;290.88;;;270.92;;
67503;SDS011;54351;49.108;1.502;2022-12-18T00:27:26;264.08;;;245.68;;
67503;SDS011;54351;49.108;1.502;2022-12-18T00:29:52;238.70;;;221.98;;
67503;SDS011;54351;49.108;1.502;2022-12-18T00:32:18;257.92;;;240.70;;
67503;SDS011;54351;49.108;1.502;2022-12-18T00:34:44;335.63;;;313.33;;
67503;SDS011;54351;49.108;1.502;2022-12-18T00:37:10;329.77;;;307.23;;
67503;SDS011;54351;49.108;1.502;2022-12-18T00:39:36;366.80;;;342.52;;
67503;SDS011;54351;49.108;1.502;2022-12-18T00:42:02;197.85;;;183.77;;
67503;SDS011;54351;49.108;1.502;2022-12-18T00:44:47;229.50;;;213.48;;
67503;SDS011;54351;49.108;1.502;2022-12-18T00:47:13;177.95;;;164.82;;
67503;SDS011;54351;49.108;1.502;2022-12-18T00:49:39;128.55;;;118.75;;
67503;SDS011;54351;49.108;1.502;2022-12-18T00:52:05;186.23;;;173.15;;
67503;SDS011;54351;49.108;1.502;2022-12-18T00:54:31;133.27;;;122.57;;
67503;SDS011;54351;49.108;1.502;2022-12-18T00:56:57;226.68;;;210.27;;
67503;SDS011;54351;49.108;1.502;2022-12-18T00:59:23;161.38;;;149.48;;
67503;SDS011;54351;49.108;1.502;2022-12-18T01:01:49;211.63;;;196.77;;
67503;SDS011;54351;49.108;1.502;2022-12-18T01:04:15;239.25;;;222.77;;
67503;SDS011;54351;49.108;1.502;2022-12-18T01:06:41;177.70;;;165.07;;
67503;SDS011;54351;49.108;1.502;2022-12-18T01:09:08;201.07;;;186.52;;
67503;SDS011;54351;49.108;1.502;2022-12-18T01:11:35;117.78;;;107.93;;
67503;SDS011;54351;49.108;1.502;2022-12-18T01:14:01;185.20;;;171.88;;
67503;SDS011;54351;49.108;1.502;2022-12-18T01:16:27;259.08;;;241.23;;
67503;SDS011;54351;49.108;1.502;2022-12-18T01:18:53;230.63;;;215.02;;
67503;SDS011;54351;49.108;1.502;2022-12-18T01:21:20;228.93;;;212.73;;
67503;SDS011;54351;49.108;1.502;2022-12-18T01:23:46;165.30;;;153.13;;
67503;SDS011;54351;49.108;1.502;2022-12-18T01:26:13;185.30;;;172.02;;
67503;SDS011;54351;49.108;1.502;2022-12-18T01:28:40;198.55;;;184.38;;
67503;SDS011;54351;49.108;1.502;2022-12-18T01:33:47;91.65;;;83.68;;
67503;SDS011;54351;49.108;1.502;2022-12-18T01:36:18;135.48;;;125.18;;
67503;SDS011;54351;49.108;1.502;2022-12-18T01:38:44;120.28;;;111.18;;
67503;SDS011;54351;49.108;1.502;2022-12-18T01:41:11;113.00;;;103.97;;
67503;SDS011;54351;49.108;1.502;2022-12-18T01:43:44;99.78;;;91.45;;
67503;SDS011;54351;49.108;1.502;2022-12-18T01:46:11;117.85;;;107.82;;
67503;SDS011;54351;49.108;1.502;2022-12-18T01:48:37;101.53;;;92.43;;
67503;SDS011;54351;49.108;1.502;2022-12-18T01:51:04;134.32;;;123.43;;
67503;SDS011;54351;49.108;1.502;2022-12-18T01:53:31;74.05;;;67.20;;
67503;SDS011;54351;49.108;1.502;2022-12-18T01:55:57;91.00;;;82.95;;
67503;SDS011;54351;49.108;1.502;2022-12-18T01:58:28;70.28;;;63.05;;
67503;SDS011;54351;49.108;1.502;2022-12-18T02:00:56;82.35;;;74.55;;
67503;SDS011;54351;49.108;1.502;2022-12-18T02:03:22;78.72;;;70.97;;
67503;SDS011;54351;49.108;1.502;2022-12-18T02:05:57;95.30;;;86.38;;
67503;SDS011;54351;49.108;1.502;2022-12-18T02:16:05;75.22;;;67.72;;
67503;SDS011;54351;49.108;1.502;2022-12-18T02:21:04;65.18;;;58.40;;
67503;SDS011;54351;49.108;1.502;2022-12-18T02:23:40;84.70;;;77.40;;
67503;SDS011;54351;49.108;1.502;2022-12-18T02:26:15;94.20;;;85.55;;
67503;SDS011;54351;49.108;1.502;2022-12-18T02:28:57;100.05;;;91.20;;
67503;SDS011;54351;49.108;1.502;2022-12-18T02:31:28;80.57;;;73.07;;
67503;SDS011;54351;49.108;1.502;2022-12-18T02:33:56;89.32;;;81.57;;
67503;SDS011;54351;49.108;1.502;2022-12-18T02:36:24;158.23;;;146.07;;
67503;SDS011;54351;49.108;1.502;2022-12-18T02:38:51;112.35;;;103.80;;
67503;SDS011;54351;49.108;1.502;2022-12-18T02:41:18;91.15;;;82.70;;
67503;SDS011;54351;49.108;1.502;2022-12-18T02:43:48;129.68;;;119.15;;
67503;SDS011;54351;49.108;1.502;2022-12-18T02:46:28;182.38;;;168.93;;
67503;SDS011;54351;49.108;1.502;2022-12-18T02:48:57;138.73;;;128.07;;
67503;SDS011;54351;49.108;1.502;2022-12-18T02:51:33;148.18;;;136.38;;
67503;SDS011;54351;49.108;1.502;2022-12-18T02:54:10;124.18;;;114.20;;
67503;SDS011;54351;49.108;1.502;2022-12-18T02:56:44;163.18;;;151.13;;
67503;SDS011;54351;49.108;1.502;2022-12-18T02:59:13;201.82;;;186.80;;
67503;SDS011;54351;49.108;1.502;2022-12-18T03:01:43;174.07;;;161.60;;
67503;SDS011;54351;49.108;1.502;2022-12-18T03:04:16;242.45;;;225.52;;
67503;SDS011;54351;49.108;1.502;2022-12-18T03:06:47;136.00;;;125.40;;
67503;SDS011;54351;49.108;1.502;2022-12-18T03:09:15;276.15;;;257.17;;
67503;SDS011;54351;49.108;1.502;2022-12-18T03:11:47;291.73;;;272.38;;
67503;SDS011;54351;49.108;1.502;2022-12-18T03:14:33;227.25;;;212.18;;
67503;SDS011;54351;49.108;1.502;2022-12-18T03:17:00;257.00;;;239.10;;
67503;SDS011;54351;49.108;1.502;2022-12-18T03:19:28;265.17;;;247.80;;
67503;SDS011;54351;49.108;1.502;2022-12-18T03:21:55;275.63;;;257.38;;
67503;SDS011;54351;49.108;1.502;2022-12-18T03:24:22;297.80;;;278.33;;
67503;SDS011;54351;49.108;1.502;2022-12-18T03:26:53;276.40;;;257.63;;
67503;SDS011;54351;49.108;1.502;2022-12-18T03:29:22;175.77;;;162.98;;
67503;SDS011;54351;49.108;1.502;2022-12-18T03:31:51;292.33;;;273.00;;
67503;SDS011;54351;49.108;1.502;2022-12-18T03:34:21;277.55;;;259.65;;
67503;SDS011;54351;49.108;1.502;2022-12-18T03:36:48;272.48;;;254.10;;
67503;SDS011;54351;49.108;1.502;2022-12-18T03:39:14;251.02;;;234.10;;
67503;SDS011;54351;49.108;1.502;2022-12-18T03:41:44;245.52;;;228.73;;
67503;SDS011;54351;49.108;1.502;2022-12-18T03:49:24;223.05;;;207.27;;
67503;SDS011;54351;49.108;1.502;2022-12-18T03:51:59;223.90;;;208.63;;
67503;SDS011;54351;49.108;1.502;2022-12-18T03:54:27;214.90;;;199.73;;
67503;SDS011;54351;49.108;1.502;2022-12-18T03:56:57;216.88;;;202.65;;
67503;SDS011;54351;49.108;1.502;2022-12-18T03:59:25;220.50;;;205.00;;
67503;SDS011;54351;49.108;1.502;2022-12-18T04:01:52;285.20;;;266.17;;
67503;SDS011;54351;49.108;1.502;2022-12-18T04:04:18;230.77;;;214.35;;
67503;SDS011;54351;49.108;1.502;2022-12-18T04:06:46;174.60;;;161.70;;
67503;SDS011;54351;49.108;1.502;2022-12-18T04:09:13;169.38;;;156.38;;
67503;SDS011;54351;49.108;1.502;2022-12-18T04:11:42;148.52;;;136.15;;
67503;SDS011;54351;49.108;1.502;2022-12-18T04:14:09;181.68;;;168.40;;
67503;SDS011;54351;49.108;1.502;2022-12-18T04:16:35;227.40;;;212.10;;
67503;SDS011;54351;49.108;1.502;2022-12-18T04:19:02;240.82;;;224.02;;
67503;SDS011;54351;49.108;1.502;2022-12-18T04:21:28;265.52;;;247.52;;
67503;SDS011;54351;49.108;1.502;2022-12-18T04:23:54;304.10;;;284.60;;
67503;SDS011;54351;49.108;1.502;2022-12-18T04:26:20;301.35;;;281.05;;
67503;SDS011;54351;49.108;1.502;2022-12-18T04:28:46;279.00;;;260.50;;
67503;SDS011;54351;49.108;1.502;2022-12-18T04:31:12;278.17;;;259.77;;
67503;SDS011;54351;49.108;1.502;2022-12-18T04:33:38;322.23;;;300.77;;
67503;SDS011;54351;49.108;1.502;2022-12-18T04:36:05;318.02;;;296.75;;
67503;SDS011;54351;49.108;1.502;2022-12-18T04:38:31;281.00;;;262.35;;
67503;SDS011;54351;49.108;1.502;2022-12-18T04:40:57;312.33;;;291.90;;
67503;SDS011;54351;49.108;1.502;2022-12-18T04:43:23;331.67;;;309.77;;
67503;SDS011;54351;49.108;1.502;2022-12-18T04:45:49;288.10;;;269.17;;
67503;SDS011;54351;49.108;1.502;2022-12-18T04:48:15;295.65;;;276.13;;
67503;SDS011;54351;49.108;1.502;2022-12-18T04:50:41;234.38;;;218.52;;
67503;SDS011;54351;49.108;1.502;2022-12-18T04:53:07;229.55;;;213.77;;
67503;SDS011;54351;49.108;1.502;2022-12-18T04:55:33;277.80;;;259.58;;
67503;SDS011;54351;49.108;1.502;2022-12-18T04:58:00;313.58;;;293.42;;
67503;SDS011;54351;49.108;1.502;2022-12-18T05:00:26;355.80;;;332.30;;
67503;SDS011;54351;49.108;1.502;2022-12-18T05:02:52;383.55;;;358.88;;
67503;SDS011;54351;49.108;1.502;2022-12-18T05:05:18;245.70;;;228.68;;
67503;SDS011;54351;49.108;1.502;2022-12-18T05:07:44;364.13;;;340.17;;
67503;SDS011;54351;49.108;1.502;2022-12-18T05:10:10;335.30;;;313.52;;
67503;SDS011;54351;49.108;1.502;2022-12-18T05:12:36;258.85;;;241.52;;
67503;SDS011;54351;49.108;1.502;2022-12-18T05:15:22;319.60;;;298.80;;
67503;SDS011;54351;49.108;1.502;2022-12-18T05:17:48;322.58;;;301.48;;
67503;SDS011;54351;49.108;1.502;2022-12-18T05:20:14;324.23;;;303.48;;
67503;SDS011;54351;49.108;1.502;2022-12-18T05:22:40;336.80;;;314.95;;
67503;SDS011;54351;49.108;1.502;2022-12-18T05:25:07;289.20;;;269.65;;
67503;SDS011;54351;49.108;1.502;2022-12-18T05:27:33;313.60;;;292.92;;
67503;SDS011;54351;49.108;1.502;2022-12-18T05:29:59;265.13;;;247.48;;
67503;SDS011;54351;49.108;1.502;2022-12-18T05:32:25;267.58;;;249.63;;
67503;SDS011;54351;49.108;1.502;2022-12-18T05:34:51;294.48;;;274.88;;
67503;SDS011;54351;49.108;1.502;2022-12-18T05:37:17;297.48;;;278.08;;
67503;SDS011;54351;49.108;1.502;2022-12-18T05:39:43;286.30;;;267.60;;
67503;SDS011;54351;49.108;1.502;2022-12-18T05:42:09;247.70;;;230.98;;
67503;SDS011;54351;49.108;1.502;2022-12-18T05:44:35;293.75;;;274.65;;
67503;SDS011;54351;49.108;1.502;2022-12-18T05:47:01;372.42;;;348.02;;
67503;SDS011;54351;49.108;1.502;2022-12-18T05:49:27;373.92;;;349.45;;
67503;SDS011;54351;49.108;1.502;2022-12-18T05:51:54;384.85;;;359.83;;
67503;SDS011;54351;49.108;1.502;2022-12-18T05:54:20;304.73;;;284.77;;
67503;SDS011;54351;49.108;1.502;2022-12-18T05:56:46;339.05;;;316.13;;
67503;SDS011;54351;49.108;1.502;2022-12-18T05:59:12;380.55;;;355.52;;
67503;SDS011;54351;49.108;1.502;2022-12-18T06:01:39;361.25;;;337.27;;
67503;SDS011;54351;49.108;1.502;2022-12-18T06:04:05;375.63;;;350.67;;
67503;SDS011;54351;49.108;1.502;2022-12-18T06:06:31;365.85;;;342.25;;
67503;SDS011;54351;49.108;1.502;2022-12-18T06:08:57;381.63;;;356.25;;
67503;SDS011;54351;49.108;1.502;2022-12-18T06:11:25;460.90;;;430.85;;
67503;SDS011;54351;49.108;1.502;2022-12-18T06:13:53;441.98;;;413.27;;
67503;SDS011;54351;49.108;1.502;2022-12-18T06:16:19;445.00;;;415.38;;
67503;SDS011;54351;49.108;1.502;2022-12-18T06:18:45;365.35;;;341.10;;
67503;SDS011;54351;49.108;1.502;2022-12-18T06:21:11;438.40;;;410.02;;
67503;SDS011;54351;49.108;1.502;2022-12-18T06:23:37;462.35;;;432.13;;
67503;SDS011;54351;49.108;1.502;2022-12-18T06:26:07;442.17;;;412.90;;
67503;SDS011;54351;49.108;1.502;2022-12-18T06:28:34;454.50;;;424.48;;
67503;SDS011;54351;49.108;1.502;2022-12-18T06:31:00;439.15;;;410.45;;
67503;SDS011;54351;49.108;1.502;2022-12-18T06:33:26;403.77;;;377.50;;
67503;SDS011;54351;49.108;1.502;2022-12-18T06:35:53;374.42;;;349.67;;
67503;SDS011;54351;49.108;1.502;2022-12-18T06:38:19;436.67;;;408.75;;
67503;SDS011;54351;49.108;1.502;2022-12-18T06:40:45;430.77;;;402.25;;
67503;SDS011;54351;49.108;1.502;2022-12-18T06:43:11;406.80;;;379.55;;
67503;SDS011;54351;49.108;1.502;2022-12-18T06:45:38;388.40;;;362.42;;
67503;SDS011;54351;49.108;1.502;2022-12-18T06:48:07;435.30;;;406.92;;
67503;SDS011;54351;49.108;1.502;2022-12-18T06:50:33;405.08;;;378.00;;
67503;SDS011;54351;49.108;1.502;2022-12-18T06:53:00;389.58;;;364.08;;
67503;SDS011;54351;49.108;1.502;2022-12-18T06:55:26;446.90;;;417.38;;
67503;SDS011;54351;49.108;1.502;2022-12-18T06:57:53;350.38;;;326.85;;
67503;SDS011;54351;49.108;1.502;2022-12-18T07:00:19;476.58;;;445.55;;
67503;SDS011;54351;49.108;1.502;2022-12-18T07:02:45;363.48;;;339.63;;
67503;SDS011;54351;49.108;1.502;2022-12-18T07:05:12;368.90;;;345.20;;
67503;SDS011;54351;49.108;1.502;2022-12-18T07:07:38;342.05;;;319.35;;
67503;SDS011;54351;49.108;1.502;2022-12-18T07:10:05;347.17;;;324.88;;
67503;SDS011;54351;49.108;1.502;2022-12-18T07:12:31;324.50;;;303.48;;
67503;SDS011;54351;49.108;1.502;2022-12-18T07:14:58;400.35;;;373.95;;
67503;SDS011;54351;49.108;1.502;2022-12-18T07:17:24;377.42;;;352.55;;
67503;SDS011;54351;49.108;1.502;2022-12-18T07:19:50;372.98;;;347.85;;
67503;SDS011;54351;49.108;1.502;2022-12-18T07:22:17;353.52;;;330.50;;
67503;SDS011;54351;49.108;1.502;2022-12-18T07:24:43;418.52;;;390.45;;
67503;SDS011;54351;49.108;1.502;2022-12-18T07:27:10;360.13;;;336.65;;
67503;SDS011;54351;49.108;1.502;2022-12-18T07:29:36;374.50;;;349.70;;
67503;SDS011;54351;49.108;1.502;2022-12-18T07:32:03;350.58;;;327.33;;
67503;SDS011;54351;49.108;1.502;2022-12-18T07:34:29;365.85;;;341.80;;
67503;SDS011;54351;49.108;1.502;2022-12-18T07:36:55;330.00;;;308.42;;
67503;SDS011;54351;49.108;1.502;2022-12-18T07:39:22;308.73;;;288.38;;
67503;SDS011;54351;49.108;1.502;2022-12-18T07:41:48;396.08;;;369.55;;
67503;SDS011;54351;49.108;1.502;2022-12-18T07:44:34;289.50;;;270.10;;
67503;SDS011;54351;49.108;1.502;2022-12-18T07:47:00;388.67;;;363.58;;
67503;SDS011;54351;49.108;1.502;2022-12-18T07:49:27;385.88;;;360.77;;
67503;SDS011;54351;49.108;1.502;2022-12-18T07:51:54;353.10;;;329.23;;
67503;SDS011;54351;49.108;1.502;2022-12-18T07:54:21;378.65;;;353.80;;
67503;SDS011;54351;49.108;1.502;2022-12-18T07:56:48;403.30;;;376.90;;
67503;SDS011;54351;49.108;1.502;2022-12-18T07:59:14;490.02;;;457.85;;
67503;SDS011;54351;49.108;1.502;2022-12-18T08:01:41;477.33;;;445.95;;
67503;SDS011;54351;49.108;1.502;2022-12-18T08:04:07;471.90;;;441.15;;
67503;SDS011;54351;49.108;1.502;2022-12-18T08:06:33;409.02;;;381.80;;
67503;SDS011;54351;49.108;1.502;2022-12-18T08:08:59;404.73;;;377.83;;
67503;SDS011;54351;49.108;1.502;2022-12-18T08:11:27;419.95;;;391.40;;
67503;SDS011;54351;49.108;1.502;2022-12-18T08:13:53;425.50;;;397.42;;
67503;SDS011;54351;49.108;1.502;2022-12-18T08:16:20;437.73;;;408.63;;
67503;SDS011;54351;49.108;1.502;2022-12-18T08:18:47;419.02;;;391.27;;
67503;SDS011;54351;49.108;1.502;2022-12-18T08:21:15;431.85;;;403.48;;
67503;SDS011;54351;49.108;1.502;2022-12-18T08:23:41;468.17;;;437.38;;
67503;SDS011;54351;49.108;1.502;2022-12-18T08:26:08;497.90;;;465.30;;
67503;SDS011;54351;49.108;1.502;2022-12-18T08:28:34;500.30;;;466.95;;
67503;SDS011;54351;49.108;1.502;2022-12-18T08:31:00;443.00;;;413.95;;
67503;SDS011;54351;49.108;1.502;2022-12-18T08:33:26;482.65;;;450.35;;
67503;SDS011;54351;49.108;1.502;2022-12-18T08:35:53;395.05;;;368.77;;
67503;SDS011;54351;49.108;1.502;2022-12-18T08:38:19;463.70;;;432.67;;
67503;SDS011;54351;49.108;1.502;2022-12-18T08:40:45;429.45;;;400.40;;
67503;SDS011;54351;49.108;1.502;2022-12-18T08:43:15;449.63;;;419.20;;
67503;SDS011;54351;49.108;1.502;2022-12-18T08:45:59;334.65;;;312.42;;
67503;SDS011;54351;49.108;1.502;2022-12-18T08:48:25;361.45;;;337.58;;
67503;SDS011;54351;49.108;1.502;2022-12-18T08:50:55;320.63;;;298.88;;
67503;SDS011;54351;49.108;1.502;2022-12-18T08:53:21;303.70;;;283.58;;
67503;SDS011;54351;49.108;1.502;2022-12-18T08:55:48;420.27;;;392.25;;
67503;SDS011;54351;49.108;1.502;2022-12-18T08:58:14;424.17;;;395.98;;
67503;SDS011;54351;49.108;1.502;2022-12-18T09:00:40;422.92;;;395.02;;
67503;SDS011;54351;49.108;1.502;2022-12-18T09:03:14;419.80;;;391.60;;
67503;SDS011;54351;49.108;1.502;2022-12-18T09:05:40;414.83;;;387.70;;
67503;SDS011;54351;49.108;1.502;2022-12-18T09:08:07;308.23;;;287.30;;
67503;SDS011;54351;49.108;1.502;2022-12-18T09:10:33;209.27;;;193.82;;
67503;SDS011;54351;49.108;1.502;2022-12-18T09:13:01;339.73;;;316.90;;
67503;SDS011;54351;49.108;1.502;2022-12-18T09:15:30;252.68;;;235.23;;
67503;SDS011;54351;49.108;1.502;2022-12-18T09:17:56;418.77;;;390.33;;
67503;SDS011;54351;49.108;1.502;2022-12-18T09:20:23;353.80;;;329.70;;
67503;SDS011;54351;49.108;1.502;2022-12-18T09:22:49;300.83;;;280.17;;
67503;SDS011;54351;49.108;1.502;2022-12-18T09:25:15;373.58;;;348.35;;
67503;SDS011;54351;49.108;1.502;2022-12-18T09:27:42;398.30;;;371.45;;
67503;SDS011;54351;49.108;1.502;2022-12-18T09:30:08;286.65;;;266.63;;
67503;SDS011;54351;49.108;1.502;2022-12-18T09:32:35;307.17;;;286.27;;
67503;SDS011;54351;49.108;1.502;2022-12-18T09:35:01;396.77;;;370.15;;
67503;SDS011;54351;49.108;1.502;2022-12-18T09:37:27;349.80;;;326.33;;
67503;SDS011;54351;49.108;1.502;2022-12-18T09:39:53;331.08;;;308.45;;
67503;SDS011;54351;49.108;1.502;2022-12-18T09:42:20;393.63;;;367.35;;
67503;SDS011;54351;49.108;1.502;2022-12-18T09:44:53;299.70;;;279.10;;
67503;SDS011;54351;49.108;1.502;2022-12-18T09:49:56;352.10;;;328.23;;
67503;SDS011;54351;49.108;1.502;2022-12-18T09:52:26;441.17;;;411.90;;
67503;SDS011;54351;49.108;1.502;2022-12-18T09:54:55;391.90;;;365.23;;
67503;SDS011;54351;49.108;1.502;2022-12-18T09:57:23;424.20;;;395.48;;
67503;SDS011;54351;49.108;1.502;2022-12-18T09:59:59;343.10;;;319.55;;
67503;SDS011;54351;49.108;1.502;2022-12-18T10:02:29;346.92;;;323.40;;
67503;SDS011;54351;49.108;1.502;2022-12-18T10:05:02;318.08;;;296.50;;
67503;SDS011;54351;49.108;1.502;2022-12-18T10:15:06;412.38;;;384.20;;
67503;SDS011;54351;49.108;1.502;2022-12-18T10:17:47;400.35;;;373.40;;
67503;SDS011;54351;49.108;1.502;2022-12-18T10:25:17;435.83;;;406.25;;
67503;SDS011;54351;49.108;1.502;2022-12-18T10:27:45;464.27;;;433.65;;
67503;SDS011;54351;49.108;1.502;2022-12-18T10:30:15;494.85;;;461.75;;
67503;SDS011;54351;49.108;1.502;2022-12-18T10:32:42;350.03;;;325.20;;
67503;SDS011;54351;49.108;1.502;2022-12-18T10:35:11;382.67;;;357.25;;
67503;SDS011;54351;49.108;1.502;2022-12-18T10:37:58;231.30;;;214.98;;
67503;SDS011;54351;49.108;1.502;2022-12-18T10:40:26;131.95;;;121.10;;
67503;SDS011;54351;49.108;1.502;2022-12-18T10:43:05;282.70;;;263.50;;
67503;SDS011;54351;49.108;1.502;2022-12-18T10:45:32;190.02;;;176.15;;
67503;SDS011;54351;49.108;1.502;2022-12-18T10:47:58;132.27;;;121.82;;
67503;SDS011;54351;49.108;1.502;2022-12-18T10:50:34;284.42;;;264.95;;
67503;SDS011;54351;49.108;1.502;2022-12-18T10:53:03;259.67;;;242.38;;
67503;SDS011;54351;49.108;1.502;2022-12-18T10:55:33;184.80;;;171.27;;
67503;SDS011;54351;49.108;1.502;2022-12-18T11:00:44;360.05;;;336.30;;
67503;SDS011;54351;49.108;1.502;2022-12-18T11:06:02;290.92;;;271.35;;
67503;SDS011;54351;49.108;1.502;2022-12-18T11:08:29;349.23;;;326.35;;
67503;SDS011;54351;49.108;1.502;2022-12-18T11:10:55;328.55;;;307.10;;
67503;SDS011;54351;49.108;1.502;2022-12-18T11:13:22;260.10;;;242.52;;
67503;SDS011;54351;49.108;1.502;2022-12-18T11:15:49;211.65;;;197.07;;
67503;SDS011;54351;49.108;1.502;2022-12-18T11:18:20;196.80;;;183.38;;
67503;SDS011;54351;49.108;1.502;2022-12-18T11:20:58;294.15;;;274.85;;
67503;SDS011;54351;49.108;1.502;2022-12-18T11:23:25;201.75;;;187.27;;
67503;SDS011;54351;49.108;1.502;2022-12-18T11:25:55;249.63;;;232.57;;
67503;SDS011;54351;49.108;1.502;2022-12-18T11:28:36;256.25;;;239.43;;
67503;SDS011;54351;49.108;1.502;2022-12-18T11:34:27;196.73;;;183.48;;
67503;SDS011;54351;49.108;1.502;2022-12-18T11:36:34;221.18;;;205.98;;
67503;SDS011;54351;49.108;1.502;2022-12-18T11:39:07;167.35;;;155.57;;
67503;SDS011;54351;49.108;1.502;2022-12-18T11:41:41;210.05;;;195.52;;
67503;SDS011;54351;49.108;1.502;2022-12-18T11:44:29;144.32;;;133.70;;
67503;SDS011;54351;49.108;1.502;2022-12-18T11:47:01;95.65;;;87.88;;
67503;SDS011;54351;49.108;1.502;2022-12-18T11:49:32;102.07;;;94.05;;
67503;SDS011;54351;49.108;1.502;2022-12-18T11:54:30;138.05;;;127.68;;
67503;SDS011;54351;49.108;1.502;2022-12-18T11:59:45;72.18;;;65.78;;
67503;SDS011;54351;49.108;1.502;2022-12-18T12:09:48;95.20;;;87.60;;
67503;SDS011;54351;49.108;1.502;2022-12-18T12:12:27;104.07;;;95.78;;
67503;SDS011;54351;49.108;1.502;2022-12-18T12:17:32;79.05;;;72.03;;
67503;SDS011;54351;49.108;1.502;2022-12-18T12:22:43;71.63;;;64.95;;
67503;SDS011;54351;49.108;1.502;2022-12-18T12:33:10;60.22;;;54.25;;
67503;SDS011;54351;49.108;1.502;2022-12-18T12:35:29;50.95;;;46.08;;
67503;SDS011;54351;49.108;1.502;2022-12-18T12:38:16;73.03;;;66.77;;
67503;SDS011;54351;49.108;1.502;2022-12-18T12:40:49;78.07;;;70.95;;
67503;SDS011;54351;49.108;1.502;2022-12-18T12:51:15;45.58;;;41.03;;
67503;SDS011;54351;49.108;1.502;2022-12-18T12:53:41;53.75;;;48.47;;
67503;SDS011;54351;49.108;1.502;2022-12-18T12:56:08;58.35;;;52.95;;
67503;SDS011;54351;49.108;1.502;2022-12-18T12:58:43;68.80;;;62.88;;
67503;SDS011;54351;49.108;1.502;2022-12-18T13:01:17;98.03;;;90.18;;
67503;SDS011;54351;49.108;1.502;2022-12-18T13:04:19;56.10;;;51.05;;
67503;SDS011;54351;49.108;1.502;2022-12-18T13:06:46;66.32;;;60.55;;
67503;SDS011;54351;49.108;1.502;2022-12-18T13:09:13;38.15;;;33.75;;
67503;SDS011;54351;49.108;1.502;2022-12-18T13:11:40;46.60;;;41.10;;
67503;SDS011;54351;49.108;1.502;2022-12-18T13:16:51;56.63;;;51.83;;
67503;SDS011;54351;49.108;1.502;2022-12-18T13:19:25;53.97;;;48.65;;
67503;SDS011;54351;49.108;1.502;2022-12-18T13:21:52;53.28;;;48.00;;
67503;SDS011;54351;49.108;1.502;2022-12-18T13:24:26;47.65;;;43.00;;
67503;SDS011;54351;49.108;1.502;2022-12-18T13:26:53;40.58;;;32.95;;
67503;SDS011;54351;49.108;1.502;2022-12-18T13:32:16;83.60;;;76.78;;
67503;SDS011;54351;49.108;1.502;2022-12-18T13:34:45;45.25;;;40.72;;
67503;SDS011;54351;49.108;1.502;2022-12-18T13:39:55;47.63;;;40.17;;
67503;SDS011;54351;49.108;1.502;2022-12-18T13:48:00;42.40;;;30.67;;
67503;SDS011;54351;49.108;1.502;2022-12-18T13:50:26;43.10;;;32.47;;
67503;SDS011;54351;49.108;1.502;2022-12-18T13:52:52;51.85;;;40.88;;
67503;SDS011;54351;49.108;1.502;2022-12-18T13:55:19;68.05;;;61.80;;
67503;SDS011;54351;49.108;1.502;2022-12-18T13:57:46;80.47;;;73.82;;
67503;SDS011;54351;49.108;1.502;2022-12-18T14:02:45;70.65;;;64.55;;
67503;SDS011;54351;49.108;1.502;2022-12-18T14:05:24;97.18;;;89.80;;
67503;SDS011;54351;49.108;1.502;2022-12-18T14:07:50;103.00;;;94.95;;
67503;SDS011;54351;49.108;1.502;2022-12-18T14:10:17;140.80;;;131.13;;
67503;SDS011;54351;49.108;1.502;2022-12-18T14:12:47;132.63;;;123.22;;
67503;SDS011;54351;49.108;1.502;2022-12-18T14:18:01;108.28;;;100.20;;
67503;SDS011;54351;49.108;1.502;2022-12-18T14:20:29;174.02;;;162.45;;
67503;SDS011;54351;49.108;1.502;2022-12-18T14:22:55;166.10;;;155.15;;
67503;SDS011;54351;49.108;1.502;2022-12-18T14:25:23;87.90;;;80.93;;
67503;SDS011;54351;49.108;1.502;2022-12-18T14:27:50;110.28;;;101.85;;
67503;SDS011;54351;49.108;1.502;2022-12-18T14:30:24;98.47;;;90.70;;
67503;SDS011;54351;49.108;1.502;2022-12-18T14:35:36;139.48;;;129.18;;
67503;SDS011;54351;49.108;1.502;2022-12-18T14:38:10;206.00;;;192.98;;
67503;SDS011;54351;49.108;1.502;2022-12-18T14:40:36;199.38;;;186.55;;
67503;SDS011;54351;49.108;1.502;2022-12-18T14:43:02;229.88;;;215.60;;
67503;SDS011;54351;49.108;1.502;2022-12-18T14:48:05;324.05;;;303.83;;
67503;SDS011;54351;49.108;1.502;2022-12-18T14:50:31;417.73;;;390.98;;
67503;SDS011;54351;49.108;1.502;2022-12-18T14:52:57;473.77;;;443.20;;
67503;SDS011;54351;49.108;1.502;2022-12-18T14:55:23;432.85;;;405.70;;
67503;SDS011;54351;49.108;1.502;2022-12-18T14:57:53;399.80;;;374.15;;
67503;SDS011;54351;49.108;1.502;2022-12-18T15:00:21;460.80;;;431.15;;
67503;SDS011;54351;49.108;1.502;2022-12-18T15:02:52;492.25;;;459.67;;
67503;SDS011;54351;49.108;1.502;2022-12-18T15:05:20;527.92;;;492.42;;
67503;SDS011;54351;49.108;1.502;2022-12-18T15:07:48;468.83;;;437.48;;
67503;SDS011;54351;49.108;1.502;2022-12-18T15:12:42;348.35;;;324.75;;
67503;SDS011;54351;49.108;1.502;2022-12-18T15:17:57;443.17;;;413.20;;
67503;SDS011;54351;49.108;1.502;2022-12-18T15:20:23;368.42;;;343.45;;
67503;SDS011;54351;49.108;1.502;2022-12-18T15:22:49;271.50;;;252.68;;
67503;SDS011;54351;49.108;1.502;2022-12-18T15:27:54;348.23;;;325.10;;
67503;SDS011;54351;49.108;1.502;2022-12-18T15:30:21;344.08;;;320.88;;
67503;SDS011;54351;49.108;1.502;2022-12-18T15:32:47;316.20;;;294.65;;
67503;SDS011;54351;49.108;1.502;2022-12-18T15:35:21;318.05;;;296.92;;
67503;SDS011;54351;49.108;1.502;2022-12-18T15:37:48;327.45;;;305.65;;
67503;SDS011;54351;49.108;1.502;2022-12-18T15:40:15;325.10;;;302.48;;
67503;SDS011;54351;49.108;1.502;2022-12-18T15:42:42;298.70;;;278.02;;
67503;SDS011;54351;49.108;1.502;2022-12-18T15:45:27;374.80;;;348.80;;
67503;SDS011;54351;49.108;1.502;2022-12-18T15:47:53;275.42;;;255.98;;
67503;SDS011;54351;49.108;1.502;2022-12-18T15:50:19;331.52;;;309.25;;
67503;SDS011;54351;49.108;1.502;2022-12-18T15:52:45;306.13;;;284.55;;
67503;SDS011;54351;49.108;1.502;2022-12-18T15:55:20;348.23;;;324.08;;